Sailor Springs, Illinois
Current Conditions -  °F | °C
As of 1:35 AM on Wednesday 26 Nov 2014 (Local Time) from KFOA Reporting Station
Clear Clear  
Wind Chill: 23°   Ceiling: Unl
Heat Index: 23°   Visibility: 7mi
Dew Point: 23°   Wind: 0mph
Humidity: 99%   Direction: NA
Pressure: 30.17"   Gusts: NA
Location:  38.76°N, 88.36°W
Report Text: KFOA 260735Z AUTO 00000KT 7SM CLR M05/M05 A3017 RMK AO2 T10501052
Loading
Personal Weather Stations






























Interactive Weather Map New forecast layout! Learn more

10-Day Weather Forecast

Advertisements
Track Severe Weather on mobile